Time;durP1;ratioP1;P1;durP2;ratioP2;P2;SDS_P1;SDS_P2;PMS_P1;PMS_P2;Temp;Humidity;BMP_temperature;BMP_pressure;BME280_temperature;BME280_humidity;BME280_pressure;Samples;Min_cycle;Max_cycle;Signal;HPM_P1;HPM_P2
2022/12/19 00:02:14;;;;;;;25.73;12.67;;;-0.10;99.90;;;;;;5072491;28;20228;-76
2022/12/19 00:04:39;;;;;;;27.57;12.17;;;-0.10;99.90;;;;;;5066943;28;20934;-76
2022/12/19 00:07:05;;;;;;;33.23;15.10;;;-0.10;99.90;;;;;;5051052;28;20250;-76
2022/12/19 00:09:32;;;;;;;28.60;12.10;;;-0.10;99.90;;;;;;5051055;28;20175;-76
2022/12/19 00:11:58;;;;;;;29.87;13.50;;;0.00;99.90;;;;;;5052351;28;20174;-76
2022/12/19 00:14:24;;;;;;;31.73;17.03;;;0.00;99.90;;;;;;5050465;28;20524;-76
2022/12/19 00:16:49;;;;;;;33.80;12.90;;;-0.10;99.90;;;;;;5052387;28;20171;-76
2022/12/19 00:19:17;;;;;;;26.63;13.37;;;-0.10;99.90;;;;;;5052577;28;20183;-76
2022/12/19 00:21:42;;;;;;;21.30;12.50;;;-0.10;99.90;;;;;;5052214;28;20177;-76
2022/12/19 00:24:10;;;;;;;32.73;14.67;;;0.00;99.90;;;;;;5051989;28;20417;-76
2022/12/19 00:26:38;;;;;;;32.10;14.07;;;0.00;99.90;;;;;;5051944;28;20186;-76
2022/12/19 00:29:06;;;;;;;25.97;13.97;;;0.00;99.90;;;;;;5052456;28;20892;-76
2022/12/19 00:31:35;;;;;;;24.13;11.50;;;0.00;99.90;;;;;;5054701;28;20408;-76
2022/12/19 00:34:01;;;;;;;25.77;11.37;;;0.00;99.90;;;;;;5054986;28;20418;-77
2022/12/19 00:36:29;;;;;;;23.30;14.93;;;0.00;99.90;;;;;;5053919;28;20425;-76
2022/12/19 00:38:56;;;;;;;28.27;13.27;;;0.00;99.90;;;;;;5050756;28;20444;-75
2022/12/19 00:41:32;;;;;;;31.97;14.63;;;0.00;99.90;;;;;;5052080;28;20437;-75
2022/12/19 00:44:00;;;;;;;26.40;12.93;;;0.10;99.90;;;;;;5052098;28;20423;-76
2022/12/19 00:46:26;;;;;;;29.90;13.50;;;0.00;99.90;;;;;;5051739;28;20836;-78
2022/12/19 00:48:52;;;;;;;28.07;11.20;;;0.10;99.90;;;;;;5051882;28;20456;-76
2022/12/19 00:51:20;;;;;;;24.43;12.93;;;0.10;99.90;;;;;;5065481;28;20411;-76
2022/12/19 00:53:47;;;;;;;34.20;13.30;;;0.10;99.90;;;;;;5050813;28;20572;-76
2022/12/19 00:56:16;;;;;;;33.57;14.20;;;0.10;99.90;;;;;;5051624;28;20406;-76
2022/12/19 00:58:42;;;;;;;34.13;15.13;;;0.10;99.90;;;;;;5052168;28;20406;-77
2022/12/19 01:01:13;;;;;;;28.20;14.97;;;0.10;99.90;;;;;;5051015;28;20500;-77
2022/12/19 01:03:38;;;;;;;23.60;11.80;;;0.10;99.90;;;;;;5052084;28;20802;-78
2022/12/19 01:06:04;;;;;;;33.17;14.30;;;0.10;99.90;;;;;;5035097;28;20448;-78
2022/12/19 01:08:30;;;;;;;29.37;15.10;;;0.10;99.90;;;;;;5032063;28;20176;-77
2022/12/19 01:10:55;;;;;;;34.83;13.70;;;0.20;99.90;;;;;;5030948;28;20402;-77
2022/12/19 01:13:23;;;;;;;30.53;13.77;;;0.20;99.90;;;;;;5030716;28;20176;-76
2022/12/19 01:15:49;;;;;;;27.97;12.83;;;0.30;99.90;;;;;;5031510;28;20166;-76
2022/12/19 01:18:14;;;;;;;25.40;13.80;;;0.30;99.90;;;;;;5030488;28;20521;-76
2022/12/19 01:20:42;;;;;;;21.83;12.60;;;0.30;99.90;;;;;;5031731;28;20175;-75
2022/12/19 01:23:09;;;;;;;25.83;13.10;;;0.30;99.90;;;;;;5031985;28;20638;-76
2022/12/19 01:25:36;;;;;;;38.60;16.20;;;0.40;99.90;;;;;;5031306;28;20450;-76
2022/12/19 01:28:03;;;;;;;27.83;14.57;;;0.40;99.90;;;;;;5031855;28;20430;-76
2022/12/19 01:30:30;;;;;;;26.77;14.83;;;0.40;99.90;;;;;;5030392;28;20487;-76
2022/12/19 01:32:56;;;;;;;24.13;10.70;;;0.50;99.90;;;;;;5031648;28;20862;-76
2022/12/19 01:35:23;;;;;;;28.03;13.67;;;0.60;99.90;;;;;;5029966;28;20422;-75
2022/12/19 01:37:52;;;;;;;29.77;14.00;;;0.50;99.90;;;;;;5030257;28;20536;-76
2022/12/19 01:40:20;;;;;;;33.37;13.77;;;0.50;99.90;;;;;;5030451;28;20936;-76
2022/12/19 01:42:47;;;;;;;26.43;13.37;;;0.60;99.90;;;;;;5031549;28;20795;-76
2022/12/19 01:45:15;;;;;;;24.10;10.87;;;0.60;99.90;;;;;;5031042;28;20522;-76
2022/12/19 01:47:52;;;;;;;27.50;11.87;;;0.60;99.90;;;;;;5030018;28;20461;-77
2022/12/19 01:50:24;;;;;;;28.40;14.40;;;0.60;99.90;;;;;;5034542;28;20497;-77
2022/12/19 01:52:51;;;;;;;21.67;12.40;;;0.60;99.90;;;;;;5035229;28;20402;-75
2022/12/19 01:55:17;;;;;;;26.67;13.10;;;0.60;99.90;;;;;;5033208;28;20418;-76
2022/12/19 01:57:42;;;;;;;29.97;14.90;;;0.70;99.90;;;;;;5040087;28;20483;-76
2022/12/19 02:00:09;;;;;;;28.53;13.30;;;0.70;99.90;;;;;;5063377;28;20176;-76
2022/12/19 02:02:42;;;;;;;24.30;13.50;;;0.70;99.90;;;;;;5073586;28;20177;-76
2022/12/19 02:05:08;;;;;;;19.87;12.53;;;0.70;99.90;;;;;;5065289;28;20425;-76
2022/12/19 02:07:34;;;;;;;23.87;13.07;;;0.70;99.90;;;;;;5054555;28;20445;-75
2022/12/19 02:10:00;;;;;;;41.00;15.43;;;0.70;99.90;;;;;;5053475;28;20493;-76
2022/12/19 02:12:31;;;;;;;23.37;13.50;;;0.80;99.90;;;;;;5054508;28;21083;-76
2022/12/19 02:14:58;;;;;;;36.90;12.47;;;0.80;99.90;;;;;;5052965;28;20555;-75
2022/12/19 02:17:59;;;;;;;28.47;13.50;;;0.80;99.90;;;;;;5054458;28;20501;-76
2022/12/19 02:21:09;;;;;;;28.07;14.03;;;0.80;99.90;;;;;;5053174;28;20418;-76
2022/12/19 02:23:49;;;;;;;26.90;12.03;;;0.80;99.90;;;;;;5053267;28;20460;-76
2022/12/19 02:26:45;;;;;;;30.33;14.33;;;0.80;99.90;;;;;;5053869;28;20538;-75
2022/12/19 02:29:33;;;;;;;32.70;15.80;;;0.80;99.90;;;;;;5053027;28;20408;-76
2022/12/19 02:32:33;;;;;;;27.23;11.93;;;0.80;99.90;;;;;;5052904;28;20448;-76
2022/12/19 02:35:06;;;;;;;25.13;13.20;;;0.80;99.90;;;;;;5053467;28;20485;-76
2022/12/19 02:37:36;;;;;;;22.70;13.37;;;0.80;99.90;;;;;;5053772;28;20440;-76
2022/12/19 02:40:24;;;;;;;22.33;12.83;;;0.80;99.90;;;;;;5054133;28;20447;-75
2022/12/19 02:42:57;;;;;;;21.50;10.77;;;0.80;99.90;;;;;;5054047;28;20409;-76
2022/12/19 02:45:26;;;;;;;29.53;12.87;;;0.80;99.90;;;;;;5052417;28;20433;-75
2022/12/19 02:47:52;;;;;;;34.07;13.80;;;0.80;99.90;;;;;;5053803;28;20842;-75
2022/12/19 02:50:18;;;;;;;33.77;12.77;;;0.80;99.90;;;;;;5054307;28;20408;-75
2022/12/19 02:52:46;;;;;;;27.00;14.20;;;0.80;99.90;;;;;;5053791;28;20412;-75
2022/12/19 02:55:15;;;;;;;28.43;12.40;;;0.90;99.90;;;;;;5052167;28;20195;-75
2022/12/19 02:58:02;;;;;;;22.03;11.80;;;0.90;99.90;;;;;;5053912;28;20447;-75
2022/12/19 03:00:28;;;;;;;24.60;12.43;;;0.90;99.90;;;;;;5052434;28;20924;-75
2022/12/19 03:03:12;;;;;;;29.53;13.87;;;0.90;99.90;;;;;;5053593;28;20408;-75
2022/12/19 03:05:45;;;;;;;21.67;11.93;;;0.90;99.90;;;;;;5040055;28;20426;-76
2022/12/19 03:08:25;;;;;;;19.57;11.43;;;0.90;99.90;;;;;;5033592;28;20415;-75
2022/12/19 03:10:59;;;;;;;23.47;13.40;;;0.90;99.90;;;;;;5063184;28;20934;-76
2022/12/19 03:13:36;;;;;;;26.13;13.20;;;1.00;99.90;;;;;;5053297;28;20438;-76
2022/12/19 03:16:06;;;;;;;27.00;13.10;;;1.00;99.90;;;;;;5053233;28;20397;-76
2022/12/19 03:18:32;;;;;;;43.63;13.63;;;1.00;99.90;;;;;;5053320;28;20830;-77
2022/12/19 03:21:22;;;;;;;30.53;14.57;;;1.00;99.90;;;;;;5053482;28;20797;-76
2022/12/19 03:23:49;;;;;;;30.07;12.00;;;1.00;99.90;;;;;;5051961;28;20422;-76
2022/12/19 03:26:20;;;;;;;23.90;13.40;;;1.00;99.90;;;;;;5052936;28;20456;-76
2022/12/19 03:29:02;;;;;;;28.63;13.73;;;1.00;99.90;;;;;;5053208;28;20397;-76
2022/12/19 03:31:31;;;;;;;24.87;13.70;;;0.90;99.90;;;;;;5052999;28;20402;-76
2022/12/19 03:34:13;;;;;;;33.37;13.17;;;0.90;99.90;;;;;;5052926;28;20526;-76
2022/12/19 03:36:44;;;;;;;27.63;12.70;;;1.00;99.90;;;;;;5052862;28;20490;-76
2022/12/19 03:39:13;;;;;;;29.40;13.90;;;1.00;99.90;;;;;;5052913;28;20415;-76
2022/12/19 03:44:30;;;;;;;29.80;12.00;;;0.90;99.90;;;;;;5052554;28;20475;-77
2022/12/19 03:47:12;;;;;;;23.90;12.27;;;0.90;99.90;;;;;;5051538;28;20466;-77
2022/12/19 03:49:38;;;;;;;18.40;11.43;;;0.90;99.90;;;;;;5051603;28;20409;-76
2022/12/19 03:52:22;;;;;;;28.20;13.00;;;0.90;99.90;;;;;;5052863;28;20412;-76
2022/12/19 03:55:02;;;;;;;32.00;14.37;;;0.90;99.90;;;;;;5051288;28;20317;-77
2022/12/19 03:57:35;;;;;;;25.60;12.60;;;1.00;99.90;;;;;;5051513;28;20416;-77
2022/12/19 04:00:07;;;;;;;33.97;12.57;;;1.00;99.90;;;;;;5052678;28;20397;-77
2022/12/19 04:02:35;;;;;;;31.57;14.77;;;0.90;99.90;;;;;;5051459;28;20918;-78
2022/12/19 04:05:06;;;;;;;31.47;13.67;;;1.00;99.90;;;;;;5051737;28;20430;-78
2022/12/19 04:07:33;;;;;;;21.57;12.23;;;1.00;99.90;;;;;;5052951;28;20453;-78
2022/12/19 04:10:02;;;;;;;33.67;14.03;;;1.00;99.90;;;;;;5051861;28;20412;-77
2022/12/19 04:12:33;;;;;;;36.70;16.30;;;1.00;99.90;;;;;;5052451;28;20484;-77
2022/12/19 04:14:58;;;;;;;29.27;13.00;;;1.00;99.90;;;;;;5052917;28;20918;-77
2022/12/19 04:17:39;;;;;;;29.27;13.70;;;1.10;99.90;;;;;;5051725;28;20413;-76
2022/12/19 04:20:11;;;;;;;37.13;14.93;;;1.00;99.90;;;;;;5053183;28;20173;-76
2022/12/19 04:22:56;;;;;;;28.27;12.83;;;1.10;99.90;;;;;;5064727;28;20935;-76
2022/12/19 04:25:29;;;;;;;36.00;15.87;;;1.10;99.90;;;;;;5052578;28;20439;-76
2022/12/19 04:28:00;;;;;;;24.63;13.60;;;1.10;99.90;;;;;;5053539;28;20449;-75
2022/12/19 04:30:26;;;;;;;28.60;11.73;;;1.10;99.90;;;;;;5054465;28;20404;-75
2022/12/19 04:32:51;;;;;;;23.33;12.50;;;1.10;99.90;;;;;;5054629;28;20543;-75
2022/12/19 04:35:17;;;;;;;26.50;12.77;;;1.20;99.90;;;;;;5053676;28;20199;-74
2022/12/19 04:37:43;;;;;;;28.07;13.10;;;1.10;99.90;;;;;;5055821;28;20528;-74
2022/12/19 04:40:09;;;;;;;34.93;17.00;;;1.20;99.90;;;;;;5056414;28;20165;-74
2022/12/19 04:42:35;;;;;;;32.50;14.00;;;1.20;99.90;;;;;;5055930;28;20408;-74
2022/12/19 04:45:02;;;;;;;29.13;14.67;;;1.20;99.90;;;;;;5053772;28;20439;-74
2022/12/19 04:47:27;;;;;;;32.43;14.43;;;1.30;99.90;;;;;;5054191;28;20452;-74
2022/12/19 04:49:53;;;;;;;25.67;15.33;;;1.30;99.90;;;;;;5054491;28;20405;-74
2022/12/19 04:52:18;;;;;;;40.10;16.93;;;1.40;99.90;;;;;;5052618;28;20171;-74
2022/12/19 04:54:44;;;;;;;28.40;14.20;;;1.30;99.90;;;;;;5053391;28;20189;-74
2022/12/19 04:57:09;;;;;;;30.83;15.37;;;1.40;99.90;;;;;;5053656;28;20255;-74
2022/12/19 04:59:35;;;;;;;27.13;13.63;;;1.30;99.90;;;;;;5053708;28;20260;-74
2022/12/19 05:02:00;;;;;;;26.63;14.40;;;1.40;99.90;;;;;;5053671;28;20169;-77
2022/12/19 05:04:26;;;;;;;27.80;13.20;;;1.40;99.90;;;;;;5048577;28;20245;-75
2022/12/19 05:06:51;;;;;;;29.13;12.93;;;1.40;99.90;;;;;;5033247;28;20235;-75
2022/12/19 05:09:17;;;;;;;24.40;12.90;;;1.40;99.90;;;;;;5032034;28;20171;-75
2022/12/19 05:11:42;;;;;;;26.43;15.40;;;1.50;99.90;;;;;;5033177;28;20173;-75
2022/12/19 05:14:08;;;;;;;31.00;16.53;;;1.50;99.90;;;;;;5032971;28;20197;-75
2022/12/19 05:16:34;;;;;;;34.50;14.80;;;1.50;99.90;;;;;;5033062;28;20176;-75
2022/12/19 05:19:00;;;;;;;29.53;16.37;;;1.50;99.90;;;;;;5032349;28;20468;-75
2022/12/19 05:21:26;;;;;;;52.27;14.10;;;1.60;99.90;;;;;;5032636;28;20412;-75
2022/12/19 05:23:51;;;;;;;26.23;14.53;;;1.60;99.90;;;;;;5035194;28;20281;-76
2022/12/19 05:26:17;;;;;;;34.20;15.03;;;1.60;99.90;;;;;;5034908;28;20191;-75
2022/12/19 05:28:42;;;;;;;30.50;15.70;;;1.60;99.90;;;;;;5035840;28;20180;-76
2022/12/19 05:31:11;;;;;;;34.20;14.00;;;1.70;99.90;;;;;;5035665;28;20225;-76
2022/12/19 05:33:37;;;;;;;34.73;15.47;;;1.70;99.90;;;;;;5062761;28;20308;-77
2022/12/19 05:36:03;;;;;;;30.07;15.37;;;1.70;99.90;;;;;;5056330;28;20932;-76
2022/12/19 05:38:29;;;;;;;28.70;14.37;;;1.70;99.90;;;;;;5055608;28;20404;-76
2022/12/19 05:40:56;;;;;;;26.47;15.47;;;1.80;99.90;;;;;;5055466;28;20413;-75
2022/12/19 05:43:22;;;;;;;28.87;14.80;;;1.80;99.90;;;;;;5055389;28;20412;-76
2022/12/19 05:45:47;;;;;;;38.17;16.93;;;1.80;99.90;;;;;;5054065;28;20419;-75
2022/12/19 05:48:13;;;;;;;36.67;16.10;;;1.80;99.90;;;;;;5055523;28;20434;-75
2022/12/19 05:50:38;;;;;;;26.53;15.33;;;1.80;99.90;;;;;;5055753;28;20521;-75
2022/12/19 05:53:04;;;;;;;24.90;13.40;;;1.80;99.90;;;;;;5055263;28;20163;-75
2022/12/19 05:55:30;;;;;;;31.23;16.80;;;1.80;99.90;;;;;;5053503;28;20255;-75
2022/12/19 05:57:55;;;;;;;36.87;15.63;;;1.90;99.90;;;;;;5055351;28;20528;-75
2022/12/19 06:00:21;;;;;;;26.60;13.90;;;1.90;99.90;;;;;;5053820;28;20727;-75
2022/12/19 06:02:47;;;;;;;25.40;13.23;;;1.90;99.90;;;;;;5055720;28;20562;-76
2022/12/19 06:05:12;;;;;;;28.90;15.03;;;1.90;99.90;;;;;;5045488;28;20191;-76
2022/12/19 06:07:38;;;;;;;31.17;16.40;;;1.90;99.90;;;;;;5034155;28;20857;-76
2022/12/19 06:10:05;;;;;;;26.87;15.23;;;1.90;99.90;;;;;;5034010;28;20176;-75
2022/12/19 06:12:30;;;;;;;30.33;14.17;;;2.00;99.90;;;;;;5034931;28;20164;-76
2022/12/19 06:14:56;;;;;;;32.30;14.03;;;2.10;99.90;;;;;;5034594;28;20433;-76
2022/12/19 06:17:21;;;;;;;33.93;14.40;;;2.10;99.90;;;;;;5034861;28;20172;-75
2022/12/19 06:19:47;;;;;;;28.23;15.90;;;2.10;99.90;;;;;;5034992;28;20194;-76
2022/12/19 06:22:12;;;;;;;26.03;14.20;;;2.20;99.90;;;;;;5033619;28;20225;-76
2022/12/19 06:24:38;;;;;;;31.33;13.67;;;2.20;99.90;;;;;;5034172;28;20190;-76
2022/12/19 06:27:04;;;;;;;31.97;16.53;;;2.30;99.90;;;;;;5034439;28;20195;-76
2022/12/19 06:29:29;;;;;;;32.67;14.43;;;2.30;99.90;;;;;;5034505;28;20571;-76
2022/12/19 06:31:55;;;;;;;30.40;15.60;;;2.30;99.90;;;;;;5034660;28;20212;-76
2022/12/19 06:34:21;;;;;;;28.67;14.77;;;2.40;99.90;;;;;;5033699;28;20179;-76
2022/12/19 06:36:46;;;;;;;28.07;14.03;;;2.40;99.90;;;;;;5034220;28;20185;-76
2022/12/19 06:39:13;;;;;;;38.23;15.97;;;2.40;99.90;;;;;;5054248;28;20424;-74
2022/12/19 06:44:23;;;;;;;34.17;16.37;;;2.30;99.90;;;;;;5054099;28;20428;-75
2022/12/19 06:46:51;;;;;;;35.83;16.70;;;2.30;99.90;;;;;;5054464;28;20444;-76
2022/12/19 06:49:17;;;;;;;29.37;16.57;;;2.30;99.90;;;;;;5053092;28;20249;-75
2022/12/19 06:51:42;;;;;;;29.67;15.00;;;2.40;99.90;;;;;;5052766;28;20822;-75
2022/12/19 06:54:10;;;;;;;25.33;13.67;;;2.40;99.90;;;;;;5054123;28;20664;-75
2022/12/19 06:56:36;;;;;;;30.67;15.77;;;2.40;99.90;;;;;;5054300;28;20178;-76
2022/12/19 06:59:03;;;;;;;22.73;13.50;;;2.50;99.90;;;;;;5053773;28;20424;-75
2022/12/19 07:01:54;;;;;;;38.73;15.57;;;2.50;99.90;;;;;;5054649;28;20415;-76
2022/12/19 07:04:28;;;;;;;29.57;15.13;;;2.60;99.90;;;;;;5051157;28;21013;-75
2022/12/19 07:06:54;;;;;;;27.53;15.27;;;2.60;99.90;;;;;;5033529;28;20462;-77
2022/12/19 07:09:20;;;;;;;37.87;16.53;;;2.60;99.90;;;;;;5032782;28;20537;-76
2022/12/19 07:11:46;;;;;;;23.33;12.70;;;2.60;99.90;;;;;;5032835;28;20163;-75
2022/12/19 07:14:12;;;;;;;37.13;15.20;;;2.60;99.90;;;;;;5033935;28;20448;-75
2022/12/19 07:16:40;;;;;;;31.10;15.27;;;2.60;99.90;;;;;;5033801;28;20246;-75
2022/12/19 07:19:07;;;;;;;25.10;12.83;;;2.60;99.90;;;;;;5035166;28;20164;-75
2022/12/19 07:21:32;;;;;;;28.87;13.70;;;2.60;99.90;;;;;;5034547;28;20823;-75
2022/12/19 07:23:59;;;;;;;28.97;15.53;;;2.70;99.90;;;;;;5035181;28;20456;-75
2022/12/19 07:26:24;;;;;;;29.13;13.83;;;2.70;99.90;;;;;;5033536;28;20688;-75
2022/12/19 07:28:50;;;;;;;33.40;16.40;;;2.70;99.90;;;;;;5034087;28;20398;-75
2022/12/19 07:31:15;;;;;;;32.53;14.40;;;2.80;99.90;;;;;;5034083;28;20214;-75
2022/12/19 07:33:41;;;;;;;25.10;13.30;;;2.80;99.90;;;;;;5033823;28;20198;-75
2022/12/19 07:36:07;;;;;;;28.03;14.03;;;2.90;99.90;;;;;;5033537;28;20172;-75
2022/12/19 07:38:32;;;;;;;43.60;14.47;;;2.90;99.90;;;;;;5032972;28;20168;-75
2022/12/19 07:41:00;;;;;;;27.27;12.53;;;2.90;99.90;;;;;;5032735;28;20772;-76
2022/12/19 07:43:26;;;;;;;24.70;13.60;;;3.00;99.90;;;;;;5033630;28;20171;-76
2022/12/19 07:45:55;;;;;;;26.50;14.40;;;3.00;99.90;;;;;;5031610;28;20899;-76
2022/12/19 07:48:20;;;;;;;29.77;14.43;;;3.00;99.90;;;;;;5030910;28;20719;-76
2022/12/19 07:50:47;;;;;;;35.50;16.53;;;3.00;99.90;;;;;;5053594;28;20415;-76
2022/12/19 07:53:14;;;;;;;33.03;13.17;;;3.10;99.90;;;;;;5054899;28;20167;-76
2022/12/19 07:55:39;;;;;;;36.23;16.67;;;3.00;99.90;;;;;;5052120;28;20445;-76
2022/12/19 07:58:05;;;;;;;28.20;12.53;;;3.10;99.90;;;;;;5052634;28;20459;-76
2022/12/19 08:00:31;;;;;;;24.80;13.60;;;3.10;99.90;;;;;;5051207;28;20177;-76
2022/12/19 08:02:58;;;;;;;22.27;14.50;;;3.10;99.90;;;;;;5051401;28;20175;-76
2022/12/19 08:05:23;;;;;;;25.37;14.10;;;3.10;99.90;;;;;;5040990;28;20191;-76
2022/12/19 08:07:49;;;;;;;35.03;15.07;;;3.20;99.90;;;;;;5031989;28;20990;-76
2022/12/19 08:10:14;;;;;;;22.13;12.90;;;3.20;99.90;;;;;;5032336;28;20533;-77
2022/12/19 08:12:40;;;;;;;28.07;14.87;;;3.20;99.90;;;;;;5030918;28;20171;-76
2022/12/19 08:15:06;;;;;;;26.70;13.70;;;3.20;99.90;;;;;;5032142;28;20260;-76
2022/12/19 08:17:32;;;;;;;27.07;14.67;;;3.20;99.90;;;;;;5032369;28;20406;-76
2022/12/19 08:19:57;;;;;;;28.10;14.73;;;3.30;99.90;;;;;;5030721;28;20414;-76
2022/12/19 08:22:23;;;;;;;26.17;13.97;;;3.30;99.90;;;;;;5032253;28;20174;-76
2022/12/19 08:24:48;;;;;;;36.33;16.63;;;3.30;99.90;;;;;;5032919;28;20195;-76
2022/12/19 08:27:17;;;;;;;35.47;14.83;;;3.30;99.90;;;;;;5040162;28;20194;-76
2022/12/19 08:29:43;;;;;;;32.70;14.90;;;3.30;99.90;;;;;;5039786;28;20170;-76
2022/12/19 08:32:08;;;;;;;35.17;16.83;;;3.40;99.90;;;;;;5039743;28;20402;-76
2022/12/19 08:34:34;;;;;;;35.03;15.17;;;3.50;99.90;;;;;;5040189;28;20219;-76
2022/12/19 08:37:00;;;;;;;29.13;17.43;;;3.50;99.90;;;;;;5038694;28;20560;-76
2022/12/19 08:39:25;;;;;;;28.83;15.20;;;3.50;99.90;;;;;;5041171;28;20656;-76
2022/12/19 08:41:51;;;;;;;30.70;17.40;;;3.60;99.90;;;;;;5039634;28;20175;-76
2022/12/19 08:44:16;;;;;;;30.40;16.07;;;3.60;99.90;;;;;;5041897;28;20592;-76
2022/12/19 08:46:42;;;;;;;32.93;16.03;;;3.60;99.90;;;;;;5040414;28;20191;-76
2022/12/19 08:49:07;;;;;;;30.47;14.90;;;3.60;99.90;;;;;;5041212;28;20553;-76
2022/12/19 08:51:33;;;;;;;31.93;16.37;;;3.60;99.90;;;;;;5031528;28;20167;-76
2022/12/19 08:53:59;;;;;;;42.90;15.67;;;3.60;99.90;;;;;;5030351;28;20270;-76
2022/12/19 08:56:24;;;;;;;23.97;15.40;;;3.60;99.90;;;;;;5031309;28;20691;-76
2022/12/19 08:58:51;;;;;;;32.00;15.37;;;3.70;99.90;;;;;;5034378;28;20176;-75
2022/12/19 09:01:18;;;;;;;26.57;15.23;;;3.60;99.90;;;;;;5041551;28;20183;-76
2022/12/19 09:03:44;;;;;;;33.67;15.53;;;3.60;99.90;;;;;;5066428;28;20424;-76
2022/12/19 09:06:11;;;;;;;28.30;14.90;;;3.60;99.90;;;;;;5037942;28;20426;-77
2022/12/19 09:08:37;;;;;;;31.67;16.47;;;3.60;99.90;;;;;;5035606;28;20394;-77
2022/12/19 09:11:12;;;;;;;26.80;14.87;;;3.60;99.90;;;;;;5035521;28;20876;-77
2022/12/19 09:13:39;;;;;;;29.23;14.40;;;3.60;99.90;;;;;;5034073;28;20413;-78
2022/12/19 09:16:19;;;;;;;31.33;15.60;;;3.70;99.90;;;;;;5033951;28;20455;-76
2022/12/19 09:18:46;;;;;;;31.10;14.77;;;3.70;99.90;;;;;;5034189;28;20497;-77
2022/12/19 09:21:12;;;;;;;28.23;13.23;;;3.70;99.90;;;;;;5035332;28;20796;-76
2022/12/19 09:23:39;;;;;;;30.57;15.10;;;3.70;99.90;;;;;;5035242;28;20398;-77
2022/12/19 09:26:10;;;;;;;32.43;16.27;;;3.80;99.90;;;;;;5035864;28;20409;-76
2022/12/19 09:28:37;;;;;;;29.13;15.30;;;3.90;99.90;;;;;;5043085;28;20401;-77
2022/12/19 09:31:07;;;;;;;28.47;16.73;;;3.90;99.90;;;;;;5039247;28;20445;-76
2022/12/19 09:33:34;;;;;;;28.37;15.30;;;3.90;99.90;;;;;;5034224;28;20414;-76
2022/12/19 09:36:01;;;;;;;27.43;14.07;;;4.00;99.90;;;;;;5033660;28;20430;-76
2022/12/19 09:38:28;;;;;;;29.23;14.70;;;4.00;99.90;;;;;;5033978;28;20413;-77
2022/12/19 09:40:57;;;;;;;25.70;14.47;;;4.00;99.90;;;;;;5033945;28;20456;-77
2022/12/19 09:43:56;;;;;;;27.80;14.13;;;4.00;99.90;;;;;;5033770;28;20406;-76
2022/12/19 09:46:39;;;;;;;30.27;13.90;;;4.10;99.90;;;;;;5034806;28;20819;-77
2022/12/19 09:49:14;;;;;;;33.87;17.60;;;4.20;99.90;;;;;;5035013;28;20405;-77
2022/12/19 09:52:02;;;;;;;29.10;13.70;;;4.20;99.90;;;;;;5034952;28;20405;-76
2022/12/19 09:54:50;;;;;;;25.53;15.40;;;4.20;99.90;;;;;;5034521;28;20945;-76
2022/12/19 09:57:18;;;;;;;22.37;12.70;;;4.30;99.90;;;;;;5035685;28;20420;-76
2022/12/19 09:59:56;;;;;;;25.33;15.07;;;4.30;99.90;;;;;;5034863;28;20412;-76
2022/12/19 10:02:45;;;;;;;28.47;13.80;;;4.40;99.90;;;;;;5033434;28;20449;-77
2022/12/19 10:05:16;;;;;;;26.17;14.10;;;4.40;99.90;;;;;;5032907;28;20492;-77
2022/12/19 10:07:43;;;;;;;31.53;12.60;;;4.40;99.90;;;;;;5033161;28;20462;-76
2022/12/19 10:10:16;;;;;;;27.53;13.93;;;4.40;99.90;;;;;;5044167;28;20467;-77
2022/12/19 10:13:06;;;;;;;24.30;13.60;;;4.40;99.90;;;;;;5062391;28;20422;-76
2022/12/19 10:15:44;;;;;;;20.70;14.03;;;4.50;99.90;;;;;;5053917;28;20428;-76
2022/12/19 10:18:21;;;;;;;24.40;14.77;;;4.50;99.90;;;;;;5054176;28;20459;-76
2022/12/19 10:20:59;;;;;;;21.77;13.30;;;4.40;99.90;;;;;;5054200;28;20511;-76
2022/12/19 10:23:44;;;;;;;26.07;12.43;;;4.50;99.90;;;;;;5052926;28;20422;-76
2022/12/19 10:26:24;;;;;;;24.07;11.80;;;4.50;99.90;;;;;;5053607;28;20463;-76
2022/12/19 10:29:10;;;;;;;25.80;13.63;;;4.60;99.90;;;;;;5054062;28;20915;-76
2022/12/19 10:31:52;;;;;;;26.53;14.30;;;4.60;99.90;;;;;;5054073;28;20956;-76
2022/12/19 10:34:21;;;;;;;21.60;11.70;;;4.60;99.90;;;;;;5053558;28;20429;-76
2022/12/19 10:36:55;;;;;;;29.83;13.57;;;4.70;99.90;;;;;;5053656;28;20770;-76
2022/12/19 10:39:58;;;;;;;29.60;15.30;;;4.70;99.90;;;;;;5052623;28;21083;-77
2022/12/19 10:42:33;;;;;;;20.53;12.50;;;4.70;99.90;;;;;;5054678;28;20484;-77
2022/12/19 10:45:05;;;;;;;28.47;13.90;;;4.70;99.90;;;;;;5054368;28;20428;-77
2022/12/19 10:47:30;;;;;;;23.93;14.23;;;4.70;99.90;;;;;;5054559;28;20453;-77
2022/12/19 10:49:56;;;;;;;24.60;13.27;;;4.80;99.90;;;;;;5054598;28;20403;-77
2022/12/19 10:52:46;;;;;;;33.17;12.07;;;4.80;99.90;;;;;;5053017;28;20216;-77
2022/12/19 10:55:46;;;;;;;25.53;12.77;;;4.90;99.90;;;;;;5053666;28;20581;-77
2022/12/19 10:58:25;;;;;;;24.10;13.17;;;4.90;99.90;;;;;;5055424;28;20941;-77
2022/12/19 11:01:10;;;;;;;28.13;14.60;;;5.00;99.90;;;;;;5053462;28;20405;-77
2022/12/19 11:03:37;;;;;;;23.97;14.37;;;5.00;99.90;;;;;;5052157;28;20417;-77
2022/12/19 11:06:04;;;;;;;20.80;13.73;;;5.10;99.90;;;;;;5036270;28;20911;-77
2022/12/19 11:08:36;;;;;;;25.63;15.37;;;5.20;99.90;;;;;;5033518;28;20407;-78
2022/12/19 11:11:05;;;;;;;25.57;13.93;;;5.20;99.90;;;;;;5033600;28;20781;-77
2022/12/19 11:13:33;;;;;;;23.03;11.83;;;5.30;99.90;;;;;;5032216;28;20415;-77
2022/12/19 11:16:01;;;;;;;25.30;13.27;;;5.30;99.90;;;;;;5033050;28;20950;-77
2022/12/19 11:18:44;;;;;;;27.23;13.20;;;5.40;99.90;;;;;;5033229;28;20460;-77
2022/12/19 11:21:31;;;;;;;19.93;12.10;;;5.40;99.90;;;;;;5039346;28;20948;-77
2022/12/19 11:24:01;;;;;;;18.37;11.73;;;5.50;99.90;;;;;;5051832;28;20479;-77
2022/12/19 11:26:40;;;;;;;25.70;14.00;;;5.40;99.90;;;;;;5072753;28;20448;-77
2022/12/19 11:29:26;;;;;;;21.27;11.63;;;5.50;99.90;;;;;;5072028;28;20469;-77
2022/12/19 11:32:00;;;;;;;21.57;13.87;;;5.60;99.90;;;;;;5071603;28;20413;-77
2022/12/19 11:34:28;;;;;;;20.50;11.63;;;5.60;99.90;;;;;;5071504;28;20466;-77
2022/12/19 11:36:56;;;;;;;29.53;14.90;;;5.70;99.90;;;;;;5073015;28;20535;-76
2022/12/19 11:39:31;;;;;;;22.90;13.63;;;5.70;99.90;;;;;;5073460;28;20419;-76
2022/12/19 11:42:21;;;;;;;27.30;13.80;;;5.80;99.90;;;;;;5073280;28;20495;-76
2022/12/19 11:44:59;;;;;;;19.77;14.17;;;5.80;99.90;;;;;;5068842;28;20863;-77
2022/12/19 11:47:39;;;;;;;27.30;14.37;;;5.70;99.90;;;;;;5073108;28;21020;-76
2022/12/19 11:50:21;;;;;;;24.50;14.50;;;5.70;99.90;;;;;;5072952;28;20408;-77
2022/12/19 11:52:51;;;;;;;21.73;14.07;;;5.70;99.90;;;;;;5076270;28;20408;-77
2022/12/19 11:55:42;;;;;;;24.87;12.10;;;5.80;99.90;;;;;;5075356;28;20452;-77
2022/12/19 11:58:10;;;;;;;28.33;14.47;;;5.80;99.90;;;;;;5072813;28;20491;-78
2022/12/19 12:00:41;;;;;;;22.80;13.57;;;5.80;99.90;;;;;;5072592;28;20408;-77
2022/12/19 12:03:42;;;;;;;27.23;12.40;;;5.80;99.90;;;;;;5072753;28;20771;-77
2022/12/19 12:06:17;;;;;;;25.20;13.10;;;5.90;99.90;;;;;;5033699;28;20445;-77
2022/12/19 12:08:50;;;;;;;24.93;14.57;;;5.90;99.90;;;;;;5032302;28;20398;-78
2022/12/19 12:11:22;;;;;;;23.03;11.83;;;6.00;99.90;;;;;;5031062;28;20502;-77
2022/12/19 12:14:08;;;;;;;30.80;14.37;;;5.90;99.90;;;;;;5032429;28;20491;-78
2022/12/19 12:16:56;;;;;;;23.93;13.77;;;5.90;99.90;;;;;;5030958;28;21035;-78
2022/12/19 12:19:49;;;;;;;23.23;12.50;;;6.00;99.90;;;;;;5032291;28;20429;-77
2022/12/19 12:22:35;;;;;;;25.77;14.63;;;6.00;99.90;;;;;;5032023;28;20914;-78
2022/12/19 12:25:27;;;;;;;29.07;13.70;;;6.00;99.90;;;;;;5032304;28;20442;-78
2022/12/19 12:28:11;;;;;;;23.23;14.53;;;5.90;99.90;;;;;;5046763;28;20454;-78
2022/12/19 12:30:49;;;;;;;20.27;12.50;;;6.00;99.90;;;;;;5056258;28;20428;-77
2022/12/19 12:33:29;;;;;;;25.40;14.20;;;6.00;99.90;;;;;;5051296;28;20477;-77
2022/12/19 12:36:09;;;;;;;22.30;14.10;;;6.20;99.90;;;;;;5050265;28;20429;-78
2022/12/19 12:38:56;;;;;;;28.47;15.17;;;6.20;99.90;;;;;;5051884;28;20787;-77
2022/12/19 12:44:15;;;;;;;25.50;13.87;;;6.30;99.90;;;;;;5051284;28;20466;-77
2022/12/19 12:47:15;;;;;;;27.30;14.47;;;6.30;99.90;;;;;;5051583;28;20935;-77
2022/12/19 12:49:42;;;;;;;24.23;15.40;;;6.30;99.90;;;;;;5051731;28;20185;-77
2022/12/19 12:52:14;;;;;;;25.00;14.40;;;6.30;99.90;;;;;;5051424;28;20417;-77
2022/12/19 12:54:43;;;;;;;23.47;13.53;;;6.20;99.90;;;;;;5051267;28;20516;-77
2022/12/19 12:57:34;;;;;;;24.00;13.43;;;6.20;99.90;;;;;;5051596;28;20401;-77
2022/12/19 13:00:19;;;;;;;17.80;13.10;;;6.30;99.90;;;;;;5048412;28;20444;-77
2022/12/19 13:03:09;;;;;;;22.73;12.13;;;6.40;99.90;;;;;;5051446;28;21199;-77
2022/12/19 13:05:50;;;;;;;20.67;12.47;;;6.40;99.90;;;;;;5038431;28;20434;-77